createdAt,value
2017-07-15T00:00:40.755Z,16.77
2017-07-15T00:03:08.920Z,13.20
2017-07-15T00:05:37.078Z,17.00
2017-07-15T00:08:05.280Z,12.60
2017-07-15T00:10:33.462Z,14.30
2017-07-15T00:13:01.627Z,15.27
2017-07-15T00:15:29.783Z,22.13
2017-07-15T00:17:58.000Z,15.47
2017-07-15T00:20:26.156Z,16.13
2017-07-15T00:22:54.318Z,11.97
2017-07-15T00:25:22.522Z,12.83
2017-07-15T00:27:50.691Z,13.13
2017-07-15T00:30:18.860Z,14.30
2017-07-15T00:32:47.001Z,14.80
2017-07-15T00:35:15.211Z,12.50
2017-07-15T00:37:43.369Z,13.13
2017-07-15T00:40:11.519Z,9.80
2017-07-15T00:42:39.698Z,15.93
2017-07-15T00:45:07.870Z,9.10
2017-07-15T00:47:36.070Z,10.17
2017-07-15T00:50:04.252Z,9.90
2017-07-15T00:52:32.434Z,12.53
2017-07-15T00:55:01.415Z,14.23
2017-07-15T00:57:29.578Z,12.10
2017-07-15T00:59:57.743Z,11.60
2017-07-15T01:02:25.938Z,11.87
2017-07-15T01:04:54.104Z,12.80
2017-07-15T01:07:22.273Z,13.00
2017-07-15T01:09:50.460Z,12.10
2017-07-15T01:12:18.679Z,10.20
2017-07-15T01:14:46.806Z,12.63
2017-07-15T01:17:15.796Z,14.90
2017-07-15T01:19:43.926Z,11.57
2017-07-15T01:22:12.078Z,13.30
2017-07-15T01:24:40.262Z,14.03
2017-07-15T01:27:08.430Z,13.13
2017-07-15T01:29:36.634Z,9.33
2017-07-15T01:32:04.770Z,13.30
2017-07-15T01:34:32.898Z,14.70
2017-07-15T01:37:01.074Z,15.27
2017-07-15T01:39:29.223Z,16.77
2017-07-15T01:41:57.437Z,10.60
2017-07-15T01:44:26.349Z,12.07
2017-07-15T01:46:54.499Z,12.30
2017-07-15T01:49:23.439Z,19.63
2017-07-15T01:51:51.578Z,14.23
2017-07-15T01:54:19.754Z,12.43
2017-07-15T01:56:47.958Z,10.67
2017-07-15T01:59:16.119Z,10.77
2017-07-15T02:01:44.272Z,14.50
2017-07-15T02:04:12.442Z,11.83
2017-07-15T02:06:40.627Z,14.80
2017-07-15T02:09:08.784Z,15.63
2017-07-15T02:11:36.943Z,12.50
2017-07-15T02:14:05.890Z,15.50
2017-07-15T02:16:34.060Z,21.13
2017-07-15T02:19:02.235Z,18.20
2017-07-15T02:21:30.415Z,18.23
2017-07-15T02:23:58.615Z,16.13
2017-07-15T02:26:26.811Z,19.20
2017-07-15T02:28:55.746Z,16.30
2017-07-15T02:31:23.931Z,17.43
2017-07-15T02:33:52.139Z,16.43
2017-07-15T02:36:21.052Z,17.37
2017-07-15T02:38:49.216Z,17.53
2017-07-15T02:41:18.175Z,19.63
2017-07-15T02:43:46.326Z,18.10
2017-07-15T02:46:14.482Z,17.97
2017-07-15T02:48:42.689Z,17.27
2017-07-15T02:51:10.854Z,13.33
2017-07-15T02:53:39.019Z,16.17
2017-07-15T02:56:07.195Z,14.70
2017-07-15T02:58:35.347Z,14.10
2017-07-15T03:01:03.539Z,13.60
2017-07-15T03:03:31.683Z,13.53
2017-07-15T03:05:59.887Z,20.70
2017-07-15T03:08:28.022Z,18.80
2017-07-15T03:10:56.190Z,19.00
2017-07-15T03:13:24.490Z,13.40
2017-07-15T03:15:52.679Z,11.13
2017-07-15T03:18:20.805Z,9.73
2017-07-15T03:20:48.991Z,14.83
2017-07-15T03:23:17.165Z,8.60
2017-07-15T03:25:46.182Z,8.40
2017-07-15T03:28:14.449Z,12.07
2017-07-15T03:30:42.594Z,12.03
2017-07-15T03:33:10.800Z,8.40
2017-07-15T03:35:39.037Z,12.33
2017-07-15T03:38:07.955Z,10.70
2017-07-15T03:40:36.149Z,10.27
2017-07-15T03:43:04.284Z,10.50
2017-07-15T03:45:32.466Z,10.47
2017-07-15T03:48:00.617Z,10.63
2017-07-15T03:50:29.550Z,11.70
2017-07-15T03:52:57.731Z,8.70
2017-07-15T03:55:25.914Z,14.10
2017-07-15T03:57:54.078Z,10.00
2017-07-15T04:00:22.269Z,13.57
2017-07-15T04:02:50.430Z,8.70
2017-07-15T04:05:18.600Z,12.13
2017-07-15T04:07:46.792Z,9.90
2017-07-15T04:10:14.987Z,14.23
2017-07-15T04:12:43.956Z,9.90
2017-07-15T04:15:12.152Z,16.80
2017-07-15T04:17:41.120Z,9.50
2017-07-15T04:20:09.284Z,11.10
2017-07-15T04:22:37.474Z,13.07
2017-07-15T04:25:05.685Z,9.33
2017-07-15T04:27:33.857Z,11.40
2017-07-15T04:30:02.012Z,11.93
2017-07-15T04:32:30.962Z,7.77
2017-07-15T04:34:59.231Z,6.07
2017-07-15T04:37:27.429Z,8.73
2017-07-15T04:39:55.637Z,13.40
2017-07-15T04:42:24.000Z,13.87
2017-07-15T04:44:52.932Z,8.30
2017-07-15T04:47:21.080Z,7.87
2017-07-15T04:49:49.282Z,8.70
2017-07-15T04:52:17.467Z,10.20
2017-07-15T04:54:45.669Z,9.60
2017-07-15T04:57:13.961Z,11.73
2017-07-15T04:59:42.126Z,20.50
2017-07-15T05:02:10.302Z,8.43
2017-07-15T05:04:38.533Z,12.47
2017-07-15T05:07:06.690Z,13.37
2017-07-15T05:09:35.283Z,12.70
2017-07-15T05:12:03.567Z,6.37
2017-07-15T05:14:31.723Z,9.13
2017-07-15T05:16:59.927Z,8.80
2017-07-15T05:19:28.100Z,11.17
2017-07-15T05:21:56.268Z,8.93
2017-07-15T05:24:24.456Z,7.53
2017-07-15T05:26:52.646Z,11.10
2017-07-15T05:29:20.790Z,12.90
2017-07-15T05:31:49.048Z,8.30
2017-07-15T05:34:17.223Z,9.97
2017-07-15T05:36:45.393Z,5.63
2017-07-15T05:39:13.609Z,5.27
2017-07-15T05:41:41.762Z,10.00
2017-07-15T05:44:09.967Z,7.67
2017-07-15T05:46:38.116Z,7.30
2017-07-15T05:49:06.273Z,8.70
2017-07-15T05:51:34.426Z,7.43
2017-07-15T05:54:02.613Z,5.63
2017-07-15T05:56:30.813Z,5.90
2017-07-15T05:58:59.123Z,11.60
2017-07-15T06:01:28.078Z,5.63
2017-07-15T06:03:56.236Z,7.37
2017-07-15T06:06:25.400Z,11.93
2017-07-15T06:08:53.584Z,7.20
2017-07-15T06:11:21.748Z,7.50
2017-07-15T06:13:49.899Z,9.33
2017-07-15T06:16:18.312Z,10.47
2017-07-15T06:18:46.475Z,8.47
2017-07-15T06:21:14.645Z,9.10
2017-07-15T06:23:42.865Z,7.73
2017-07-15T06:26:11.016Z,11.43
2017-07-15T06:28:39.212Z,6.53
2017-07-15T06:31:07.366Z,12.07
2017-07-15T06:33:35.582Z,6.10
2017-07-15T06:36:04.547Z,5.17
2017-07-15T06:38:32.694Z,9.20
2017-07-15T06:41:00.851Z,6.63
2017-07-15T06:43:29.055Z,8.67
2017-07-15T06:45:57.202Z,9.37
2017-07-15T06:48:25.374Z,5.23
2017-07-15T06:50:53.557Z,9.10
2017-07-15T06:53:21.736Z,8.30
2017-07-15T06:55:49.947Z,7.10
2017-07-15T06:58:18.095Z,9.67
2017-07-15T07:00:46.249Z,9.17
2017-07-15T07:03:14.516Z,8.63
2017-07-15T07:05:42.728Z,11.30
2017-07-15T07:08:10.874Z,9.23
2017-07-15T07:10:39.027Z,10.33
2017-07-15T07:13:07.270Z,3.63
2017-07-15T07:15:36.195Z,10.00
2017-07-15T07:18:04.386Z,5.30
2017-07-15T07:20:32.605Z,10.63
2017-07-15T07:23:00.767Z,4.40
2017-07-15T07:25:28.959Z,4.80
2017-07-15T07:27:57.883Z,11.13
2017-07-15T07:30:26.042Z,24.17
2017-07-15T07:32:54.205Z,4.20
2017-07-15T07:35:22.362Z,5.50
2017-07-15T07:37:51.321Z,4.37
2017-07-15T07:40:19.482Z,8.43
2017-07-15T07:42:47.660Z,2.80
2017-07-15T07:45:15.791Z,3.87
2017-07-15T07:47:43.947Z,4.53
2017-07-15T07:50:12.080Z,3.63
2017-07-15T07:52:40.243Z,8.60
2017-07-15T07:55:08.432Z,6.60
2017-07-15T07:57:36.600Z,5.20
2017-07-15T08:00:04.749Z,6.23
2017-07-15T08:02:32.917Z,7.43
2017-07-15T08:05:01.143Z,6.13
2017-07-15T08:07:29.318Z,3.70
2017-07-15T08:09:57.477Z,7.93
2017-07-15T08:12:25.669Z,10.03
2017-07-15T08:14:54.600Z,5.70
2017-07-15T08:17:22.775Z,7.00
2017-07-15T08:19:50.959Z,4.60
2017-07-15T08:22:19.120Z,8.60
2017-07-15T08:24:47.290Z,5.77
2017-07-15T08:27:15.496Z,8.20
2017-07-15T08:29:43.668Z,3.70
2017-07-15T08:32:11.831Z,10.73
2017-07-15T08:34:40.040Z,4.77
2017-07-15T08:37:08.203Z,8.20
2017-07-15T08:39:36.383Z,7.57
2017-07-15T08:42:04.620Z,6.40
2017-07-15T08:44:32.776Z,8.33
2017-07-15T08:47:00.987Z,5.13
2017-07-15T08:49:29.163Z,12.33
2017-07-15T08:51:57.315Z,3.53
2017-07-15T08:54:25.480Z,8.07
2017-07-15T08:56:53.682Z,6.30
2017-07-15T08:59:21.834Z,6.00
2017-07-15T09:01:49.980Z,3.93
2017-07-15T09:04:18.157Z,7.80
2017-07-15T09:06:46.349Z,7.70
2017-07-15T09:09:14.537Z,6.37
2017-07-15T09:11:42.705Z,8.43
2017-07-15T09:14:10.901Z,5.50
2017-07-15T09:16:39.083Z,4.50
2017-07-15T09:19:07.243Z,3.80
2017-07-15T09:21:35.454Z,3.10
2017-07-15T09:24:04.480Z,4.87
2017-07-15T09:26:32.662Z,5.33
2017-07-15T09:29:00.829Z,4.40
2017-07-15T09:31:28.984Z,2.73
2017-07-15T09:33:57.198Z,4.00
2017-07-15T09:36:25.448Z,8.10
2017-07-15T09:38:53.602Z,7.93
2017-07-15T09:41:21.784Z,7.57
2017-07-15T09:43:49.946Z,3.20
2017-07-15T09:46:18.114Z,7.40
2017-07-15T09:48:46.558Z,2.30
2017-07-15T09:51:19.600Z,4.17
2017-07-15T09:53:47.821Z,3.57
2017-07-15T09:56:15.984Z,3.17
2017-07-15T09:58:44.156Z,5.30
2017-07-15T10:01:12.355Z,4.77
2017-07-15T10:03:41.289Z,3.00
2017-07-15T10:06:09.451Z,6.00
2017-07-15T10:08:37.636Z,8.40
2017-07-15T10:11:05.896Z,3.37
2017-07-15T10:13:34.066Z,6.93
2017-07-15T10:16:02.209Z,4.30
2017-07-15T10:18:31.180Z,4.23
2017-07-15T10:20:59.334Z,6.53
2017-07-15T10:23:27.604Z,2.60
2017-07-15T10:25:55.812Z,4.67
2017-07-15T10:28:23.951Z,2.00
2017-07-15T10:30:52.105Z,4.73
2017-07-15T10:33:20.309Z,5.33
2017-07-15T10:35:48.465Z,3.03
2017-07-15T10:38:16.672Z,6.20
2017-07-15T10:40:44.845Z,5.10
2017-07-15T10:43:13.018Z,2.50
2017-07-15T10:45:41.245Z,3.47
2017-07-15T10:48:09.393Z,3.03
2017-07-15T10:50:37.602Z,5.00
2017-07-15T10:53:05.778Z,2.20
2017-07-15T10:55:33.963Z,2.93
2017-07-15T10:58:02.107Z,2.40
2017-07-15T11:00:30.287Z,3.67
2017-07-15T11:02:58.475Z,1.40
2017-07-15T11:05:26.666Z,2.20
2017-07-15T11:07:54.868Z,6.23
2017-07-15T11:10:23.797Z,3.30
2017-07-15T11:12:51.983Z,1.30
2017-07-15T11:15:20.201Z,5.13
2017-07-15T11:17:48.384Z,3.53
2017-07-15T11:20:17.312Z,1.93
2017-07-15T11:22:45.534Z,2.50
2017-07-15T11:25:13.747Z,3.97
2017-07-15T11:27:41.901Z,2.90
2017-07-15T11:30:10.882Z,1.80
2017-07-15T11:32:39.015Z,1.53
2017-07-15T11:35:07.183Z,3.03
2017-07-15T11:37:35.341Z,4.63
2017-07-15T11:40:03.527Z,2.67
2017-07-15T11:42:31.691Z,1.50
2017-07-15T11:44:59.866Z,0.80
2017-07-15T11:47:28.026Z,3.77
2017-07-15T11:49:56.216Z,2.67
2017-07-15T11:52:24.528Z,1.80
2017-07-15T11:54:52.680Z,1.80
2017-07-15T11:57:20.932Z,3.23
2017-07-15T11:59:49.092Z,4.53
2017-07-15T12:02:17.269Z,2.63
2017-07-15T12:04:45.467Z,5.70
2017-07-15T12:07:13.619Z,1.77
2017-07-15T12:09:41.755Z,2.53
2017-07-15T12:12:10.708Z,3.83
2017-07-15T12:14:38.851Z,5.57
2017-07-15T12:17:07.007Z,2.60
2017-07-15T12:19:35.957Z,1.70
2017-07-15T12:22:04.095Z,4.10
2017-07-15T12:24:32.238Z,5.83
2017-07-15T12:27:01.207Z,7.73
2017-07-15T12:29:29.377Z,1.53
2017-07-15T12:31:57.619Z,1.50
2017-07-15T12:34:25.807Z,3.03
2017-07-15T12:36:53.961Z,2.53
2017-07-15T12:39:22.116Z,1.73
2017-07-15T12:41:50.337Z,2.87
2017-07-15T12:44:18.494Z,2.20
2017-07-15T12:46:46.666Z,2.97
2017-07-15T12:49:14.841Z,1.93
2017-07-15T12:51:43.029Z,2.87
2017-07-15T12:54:11.271Z,3.83
2017-07-15T12:56:39.547Z,2.50
2017-07-15T12:59:07.767Z,4.27
2017-07-15T13:01:35.933Z,3.23
2017-07-15T13:04:04.113Z,2.67
2017-07-15T13:06:32.301Z,2.33
2017-07-15T13:09:01.291Z,4.53
2017-07-15T13:11:29.440Z,2.80
2017-07-15T13:13:57.612Z,3.37
2017-07-15T13:16:25.806Z,3.03
2017-07-15T13:18:53.955Z,4.90
2017-07-15T13:21:22.139Z,4.70
2017-07-15T13:23:50.303Z,3.43
2017-07-15T13:26:18.480Z,1.83
2017-07-15T13:28:46.670Z,7.30
2017-07-15T13:31:14.823Z,9.77
2017-07-15T13:33:42.993Z,6.33
2017-07-15T13:36:11.206Z,2.43
2017-07-15T13:38:40.122Z,5.53
2017-07-15T13:41:08.362Z,10.83
2017-07-15T13:43:36.515Z,1.40
2017-07-15T13:46:04.700Z,7.10
2017-07-15T13:48:32.998Z,4.53
2017-07-15T13:51:01.935Z,2.00
2017-07-15T13:53:30.126Z,2.13
2017-07-15T13:55:58.306Z,2.53
2017-07-15T13:58:26.492Z,2.83
2017-07-15T14:00:54.681Z,4.40
2017-07-15T14:03:22.829Z,2.77
2017-07-15T14:05:50.986Z,2.60
2017-07-15T14:08:19.197Z,4.70
2017-07-15T14:10:48.105Z,2.80
2017-07-15T14:13:16.282Z,3.23
2017-07-15T14:15:44.469Z,2.83
2017-07-15T14:18:12.668Z,1.70
2017-07-15T14:20:40.852Z,4.23
2017-07-15T14:23:09.003Z,5.70
2017-07-15T14:25:37.193Z,5.83
2017-07-15T14:28:05.391Z,10.00
2017-07-15T14:30:33.543Z,3.60
2017-07-15T14:33:01.701Z,2.30
2017-07-15T14:35:29.852Z,2.60
2017-07-15T14:37:58.034Z,5.60
2017-07-15T14:40:26.182Z,2.50
2017-07-15T14:42:54.357Z,5.07
2017-07-15T14:45:22.653Z,4.90
2017-07-15T14:47:50.838Z,1.60
2017-07-15T14:50:19.072Z,3.83
2017-07-15T14:52:47.248Z,1.93
2017-07-15T14:55:15.550Z,3.13
2017-07-15T14:57:43.664Z,3.70
2017-07-15T15:00:11.827Z,3.70
2017-07-15T15:02:39.996Z,2.93
2017-07-15T15:05:08.208Z,1.70
2017-07-15T15:07:36.421Z,2.50
2017-07-15T15:10:04.620Z,3.40
2017-07-15T15:12:32.772Z,3.30
2017-07-15T15:15:00.939Z,3.23
2017-07-15T15:17:29.089Z,4.77
2017-07-15T15:19:57.279Z,1.60
2017-07-15T15:22:25.436Z,3.10
2017-07-15T15:24:53.599Z,3.00
2017-07-15T15:27:21.780Z,2.33
2017-07-15T15:29:49.940Z,5.30
2017-07-15T15:32:18.894Z,2.50
2017-07-15T15:34:47.067Z,4.83
2017-07-15T15:37:15.224Z,5.37
2017-07-15T15:39:43.390Z,4.57
2017-07-15T15:42:11.546Z,1.90
2017-07-15T15:44:39.696Z,1.50
2017-07-15T15:47:07.946Z,1.80
2017-07-15T15:49:36.109Z,2.07
2017-07-15T15:52:04.312Z,2.07
2017-07-15T15:54:33.301Z,3.60
2017-07-15T15:57:01.520Z,2.20
2017-07-15T15:59:29.686Z,3.93
2017-07-15T16:01:57.864Z,2.97
2017-07-15T16:04:26.066Z,2.50
2017-07-15T16:06:54.239Z,4.07
2017-07-15T16:09:22.400Z,1.97
2017-07-15T16:11:50.617Z,1.60
2017-07-15T16:14:19.564Z,3.77
2017-07-15T16:16:47.723Z,3.93
2017-07-15T16:19:15.883Z,3.47
2017-07-15T16:21:44.048Z,2.60
2017-07-15T16:24:12.191Z,2.70
2017-07-15T16:26:41.094Z,2.80
2017-07-15T16:29:09.331Z,2.37
2017-07-15T16:31:37.477Z,1.60
2017-07-15T16:34:05.640Z,2.37
2017-07-15T16:36:33.823Z,2.40
2017-07-15T16:39:02.058Z,2.80
2017-07-15T16:41:31.066Z,2.77
2017-07-15T16:43:59.222Z,3.17
2017-07-15T16:46:28.186Z,5.00
2017-07-15T16:48:56.345Z,2.70
2017-07-15T16:51:24.504Z,4.40
2017-07-15T16:53:52.694Z,2.83
2017-07-15T16:56:20.840Z,2.20
2017-07-15T16:58:49.038Z,2.37
2017-07-15T17:01:17.215Z,2.17
2017-07-15T17:03:45.424Z,2.10
2017-07-15T17:06:14.344Z,1.50
2017-07-15T17:08:42.558Z,3.03
2017-07-15T17:11:10.720Z,15.43
2017-07-15T17:13:38.909Z,14.47
2017-07-15T17:16:07.111Z,5.10
2017-07-15T17:18:36.334Z,3.30
2017-07-15T17:21:04.516Z,9.27
2017-07-15T17:23:32.669Z,7.37
2017-07-15T17:26:00.898Z,9.43
2017-07-15T17:28:29.073Z,8.73
2017-07-15T17:30:57.235Z,4.80
2017-07-15T17:33:25.385Z,3.93
2017-07-15T17:35:53.609Z,9.00
2017-07-15T17:38:21.767Z,4.77
2017-07-15T17:40:49.953Z,2.90
2017-07-15T17:43:18.144Z,3.10
2017-07-15T17:45:47.184Z,3.10
2017-07-15T17:48:15.359Z,3.70
2017-07-15T17:50:43.575Z,5.53
2017-07-15T17:53:12.501Z,2.90
2017-07-15T17:55:40.638Z,2.97
2017-07-15T17:58:09.754Z,2.43
2017-07-15T18:00:37.919Z,2.60
2017-07-15T18:03:06.105Z,3.53
2017-07-15T18:05:34.285Z,4.70
2017-07-15T18:08:02.433Z,3.20
2017-07-15T18:10:31.407Z,4.23
2017-07-15T18:12:59.556Z,4.13
2017-07-15T18:15:27.686Z,4.20
2017-07-15T18:17:55.891Z,5.33
2017-07-15T18:20:24.096Z,3.27
2017-07-15T18:22:52.256Z,3.70
2017-07-15T18:25:20.450Z,3.47
2017-07-15T18:27:48.704Z,3.30
2017-07-15T18:30:17.038Z,4.33
2017-07-15T18:32:45.209Z,4.07
2017-07-15T18:35:13.424Z,6.37
2017-07-15T18:37:41.602Z,2.90
2017-07-15T18:40:09.774Z,5.67
2017-07-15T18:42:37.947Z,3.40
2017-07-15T18:45:06.119Z,4.70
2017-07-15T18:47:34.400Z,3.87
2017-07-15T18:50:02.515Z,3.30
2017-07-15T18:52:30.689Z,3.63
2017-07-15T18:54:59.642Z,7.97
2017-07-15T18:57:27.815Z,4.30
2017-07-15T18:59:55.977Z,7.87
2017-07-15T19:02:24.161Z,5.33
2017-07-15T19:04:52.326Z,4.00
2017-07-15T19:07:20.491Z,4.20
2017-07-15T19:09:48.716Z,11.20
2017-07-15T19:12:16.931Z,4.20
2017-07-15T19:14:45.084Z,5.23
2017-07-15T19:17:13.254Z,5.40
2017-07-15T19:19:41.447Z,4.63
2017-07-15T19:22:09.604Z,4.53
2017-07-15T19:24:37.809Z,5.23
2017-07-15T19:27:05.991Z,4.60
2017-07-15T19:29:34.161Z,4.63
2017-07-15T19:32:02.391Z,7.03
2017-07-15T19:34:32.231Z,8.30
2017-07-15T19:37:00.371Z,5.13
2017-07-15T19:39:28.578Z,8.43
2017-07-15T19:41:56.732Z,6.87
2017-07-15T19:44:24.910Z,4.80
2017-07-15T19:46:53.115Z,4.40
2017-07-15T19:49:21.301Z,4.53
2017-07-15T19:51:49.491Z,5.50
2017-07-15T19:54:18.439Z,7.63
2017-07-15T19:56:46.600Z,4.37
2017-07-15T19:59:14.787Z,10.53
2017-07-15T20:01:42.952Z,5.20
2017-07-15T20:04:11.154Z,5.30
2017-07-15T20:06:39.328Z,5.57
2017-07-15T20:09:07.505Z,5.77
2017-07-15T20:11:35.713Z,5.67
2017-07-15T20:14:04.655Z,5.20
2017-07-15T20:16:32.817Z,9.67
2017-07-15T20:19:00.979Z,5.90
2017-07-15T20:21:29.185Z,11.07
2017-07-15T20:23:57.370Z,8.20
2017-07-15T20:26:25.560Z,5.40
2017-07-15T20:28:54.595Z,6.67
2017-07-15T20:31:22.769Z,7.50
2017-07-15T20:33:51.010Z,5.80
2017-07-15T20:36:25.491Z,6.00
2017-07-15T20:38:53.689Z,8.93
2017-07-15T20:41:21.842Z,11.63
2017-07-15T20:43:50.020Z,7.97
2017-07-15T20:46:18.189Z,8.43
2017-07-15T20:48:46.484Z,7.33
2017-07-15T20:51:15.422Z,5.73
2017-07-15T20:53:49.017Z,6.10
2017-07-15T20:56:17.191Z,6.10
2017-07-15T20:58:45.370Z,5.50
2017-07-15T21:01:13.547Z,5.00
2017-07-15T21:03:41.734Z,5.73
2017-07-15T21:06:09.863Z,8.60
2017-07-15T21:08:38.044Z,4.63
2017-07-15T21:11:06.222Z,4.80
2017-07-15T21:13:34.660Z,5.23
2017-07-15T21:16:03.606Z,6.80
2017-07-15T21:18:31.781Z,8.10
2017-07-15T21:20:59.995Z,6.17
2017-07-15T21:23:28.918Z,11.00
2017-07-15T21:25:57.182Z,8.00
2017-07-15T21:28:25.396Z,7.60
2017-07-15T21:30:53.647Z,6.13
2017-07-15T21:33:21.750Z,7.70
2017-07-15T21:35:50.017Z,6.70
2017-07-15T21:38:18.230Z,6.40
2017-07-15T21:40:46.382Z,6.43
2017-07-15T21:43:14.525Z,5.90
2017-07-15T21:45:42.717Z,7.10
2017-07-15T21:48:10.889Z,8.47
2017-07-15T21:50:39.055Z,9.10
2017-07-15T21:53:07.261Z,9.13
2017-07-15T21:55:35.414Z,9.43
2017-07-15T21:58:03.647Z,9.17
2017-07-15T22:00:31.823Z,8.10
2017-07-15T22:02:59.939Z,7.70
2017-07-15T22:05:28.138Z,8.30
2017-07-15T22:07:57.063Z,7.87
2017-07-15T22:10:25.243Z,8.53
2017-07-15T22:12:53.520Z,17.60
2017-07-15T22:15:21.707Z,7.30
2017-07-15T22:17:49.863Z,8.07
2017-07-15T22:20:18.043Z,7.73
2017-07-15T22:22:46.270Z,7.40
2017-07-15T22:25:14.409Z,13.50
2017-07-15T22:27:42.567Z,8.50
2017-07-15T22:30:10.788Z,11.30
2017-07-15T22:32:39.706Z,8.77
2017-07-15T22:35:07.879Z,10.30
2017-07-15T22:37:36.059Z,9.93
2017-07-15T22:40:04.242Z,9.50
2017-07-15T22:42:32.367Z,9.43
2017-07-15T22:45:01.751Z,7.50
2017-07-15T22:47:29.911Z,8.87
2017-07-15T22:49:58.087Z,11.40
2017-07-15T22:52:26.461Z,10.07
2017-07-15T22:54:54.618Z,8.27
2017-07-15T22:57:22.768Z,8.93
2017-07-15T22:59:50.980Z,8.43
2017-07-15T23:02:19.139Z,9.13
2017-07-15T23:04:47.295Z,15.33
2017-07-15T23:07:15.426Z,9.67
2017-07-15T23:09:44.419Z,9.60
2017-07-15T23:12:12.564Z,10.40
2017-07-15T23:14:40.736Z,10.37
2017-07-15T23:17:08.993Z,9.97
2017-07-15T23:19:37.134Z,9.80
2017-07-15T23:22:05.310Z,10.70
2017-07-15T23:24:33.573Z,9.93
2017-07-15T23:27:02.514Z,10.67
2017-07-15T23:29:30.688Z,10.80
2017-07-15T23:31:58.895Z,10.43
2017-07-15T23:34:27.830Z,9.83
2017-07-15T23:36:55.970Z,9.23
2017-07-15T23:39:24.930Z,9.23
2017-07-15T23:41:53.090Z,11.00
2017-07-15T23:44:21.270Z,9.83
2017-07-15T23:46:49.454Z,9.90
2017-07-15T23:49:17.607Z,10.37
2017-07-15T23:51:45.806Z,10.70
2017-07-15T23:54:13.990Z,11.50
2017-07-15T23:56:42.187Z,11.40
2017-07-15T23:59:11.112Z,11.73
